ADDS METAR Data INFO
IDs: Format: Raw Decoded Include TAF

Data at: 0126 UTC 23 Nov 2017

METAR for:PADQ (Kodiak Arpt, AK, US)
Text:PADQ 230053Z 31004KT 10SM OVC075 01/M05 A2960 RMK AO2 SLP023 T00061050 $
Temperature: 0.6°C ( 33°F)
Dewpoint: -5.0°C ( 23°F) [RH = 66%]
Pressure (altimeter):29.60 inches Hg (1002.5 mb) [Sea level pressure: 1002.3 mb]
Winds:from the NW (310 degrees) at 5 MPH (4 knots; 2.1 m/s)
Visibility:10 or more sm (16+ km)
Ceiling:7500 feet AGL
Clouds: overcast cloud deck at 7500 feet AGL
QC Flag:SOME DATA ABOVE MAY BE INACCURATE!!!"$" is an indication the sensor requires maintenance.
Text:PADQ 222353Z 20005KT 10SM OVC085 02/M07 A2963 RMK AO2 SLP035 T00221067 10028 20006 56043 $
Temperature: 2.2°C ( 36°F)
Dewpoint: -6.7°C ( 20°F) [RH = 52%]
Pressure (altimeter):29.63 inches Hg (1003.5 mb) [Sea level pressure: 1003.5 mb]
Winds:from the SSW (200 degrees) at 6 MPH (5 knots; 2.6 m/s)
Visibility:10 or more sm (16+ km)
Ceiling:8500 feet AGL
Clouds: overcast cloud deck at 8500 feet AGL
QC Flag:SOME DATA ABOVE MAY BE INACCURATE!!!"$" is an indication the sensor requires maintenance.
Text:PADQ 222253Z 00000KT 10SM BKN110 02/M07 A2967 RMK AO2 SLP046 T00221072 $
Temperature: 2.2°C ( 36°F)
Dewpoint: -7.2°C ( 19°F) [RH = 50%]
Pressure (altimeter):29.67 inches Hg (1004.8 mb) [Sea level pressure: 1004.6 mb]
Winds:calm
Visibility:10 or more sm (16+ km)
Ceiling:11000 feet AGL
Clouds: broken clouds at 11000 feet AGL
QC Flag:SOME DATA ABOVE MAY BE INACCURATE!!!"$" is an indication the sensor requires maintenance.
Text:PADQ 222153Z 29007KT 10SM BKN100 BKN120 02/M08 A2970 RMK AO2 SLP057 T00221083
Temperature: 2.2°C ( 36°F)
Dewpoint: -8.3°C ( 17°F) [RH = 46%]
Pressure (altimeter):29.70 inches Hg (1005.8 mb) [Sea level pressure: 1005.7 mb]
Winds:from the WNW (290 degrees) at 8 MPH (7 knots; 3.6 m/s)
Visibility:10 or more sm (16+ km)
Ceiling:10000 feet AGL
Clouds: broken clouds at 10000 feet AGL, broken clouds at 12000 feet AGL
Text:PADQ 222053Z 28008KT 10SM OVC100 02/M07 A2976 RMK AO2 SLP078 T00171072 58021
Temperature: 1.7°C ( 35°F)
Dewpoint: -7.2°C ( 19°F) [RH = 52%]
Pressure (altimeter):29.76 inches Hg (1007.9 mb) [Sea level pressure: 1007.8 mb]
Winds:from the W (280 degrees) at 9 MPH (8 knots; 4.1 m/s)
Visibility:10 or more sm (16+ km)
Ceiling:10000 feet AGL
Clouds: overcast cloud deck at 10000 feet AGL
Text:PADQ 221953Z 28012KT 10SM BKN120 02/M08 A2980 RMK AO2 PK WND 30026/1855 SLP090 T00171083
Temperature: 1.7°C ( 35°F)
Dewpoint: -8.3°C ( 17°F) [RH = 47%]
Pressure (altimeter):29.80 inches Hg (1009.2 mb) [Sea level pressure: 1009.0 mb]
Winds:from the W (280 degrees) at 14 MPH (12 knots; 6.2 m/s)
Visibility:10 or more sm (16+ km)
Ceiling:12000 feet AGL
Clouds: broken clouds at 12000 feet AGL

TAF for:PADQ (Kodiak Arpt, AK, US) issued at 2325 UTC 22 Nov 2017
Text:PADQ 222325Z 2300/2324 28008KT P6SM BKN050
Forecast period:0000 to 0500 UTC 23 November 2017
Forecast type:FROM: standard forecast or significant change
Winds:from the W (280 degrees) at 9 MPH (8 knots; 4.1 m/s)
Visibility:6 or more sm (10+ km)
Ceiling:5000 feet AGL
Clouds: broken clouds at 5000 feet AGL
Text:FM230500 17010KT 3SM -SN BKN020 OVC035
Forecast period:0500 to 1000 UTC 23 November 2017
Forecast type:FROM: standard forecast or significant change
Winds:from the S (170 degrees) at 12 MPH (10 knots; 5.1 m/s)
Visibility: 3 sm ( 5 km)
Ceiling:2000 feet AGL
Clouds: broken clouds at 2000 feet AGL, overcast cloud deck at 3500 feet AGL
Weather:-SN (light snow)
Text:FM231000 29010KT 5SM -SHSN BKN035
Forecast period:1000 to 1500 UTC 23 November 2017
Forecast type:FROM: standard forecast or significant change
Winds:from the WNW (290 degrees) at 12 MPH (10 knots; 5.1 m/s)
Visibility: 5 sm ( 8 km)
Ceiling:3500 feet AGL
Clouds: broken clouds at 3500 feet AGL
Weather:-SHSN (light snow showers)
Text:FM231500 28015G25KT P6SM BKN035
Forecast period:1500 to 2200 UTC 23 November 2017
Forecast type:FROM: standard forecast or significant change
Winds:from the W (280 degrees) at 17 MPH (15 knots; 7.7 m/s) gusting to 29 MPH (25 knots; 12.9 m/s)
Visibility:6 or more sm (10+ km)
Ceiling:3500 feet AGL
Clouds: broken clouds at 3500 feet AGL
Text:FM232200 32015G25KT P6SM BKN050
Forecast period:2200 UTC 23 November 2017 to 0000 UTC 24 November 2017
Forecast type:FROM: standard forecast or significant change
Winds:from the NW (320 degrees) at 17 MPH (15 knots; 7.7 m/s) gusting to 29 MPH (25 knots; 12.9 m/s)
Visibility:6 or more sm (10+ km)
Ceiling:5000 feet AGL
Clouds: broken clouds at 5000 feet AGL